Time;durP1;ratioP1;P1;durP2;ratioP2;P2;SDS_P1;SDS_P2;PMS_P1;PMS_P2;Temp;Humidity;BMP_temperature;BMP_pressure;BME280_temperature;BME280_humidity;BME280_pressure;Samples;Min_cycle;Max_cycle;Signal;HPM_P1;HPM_P2
2023/09/08 00:02:25;;;;;;;8.30;4.10;;;;;;;18.99;69.61;101288.88;7382703;19;20911;-77
2023/09/08 00:04:52;;;;;;;6.80;4.32;;;;;;;18.98;69.56;101289.09;7386791;19;20509;-77
2023/09/08 00:07:20;;;;;;;7.50;4.20;;;;;;;18.98;69.35;101287.25;7383108;19;20415;-77
2023/09/08 00:09:47;;;;;;;5.75;3.95;;;;;;;18.97;69.34;101284.78;7379437;19;20892;-77
2023/09/08 00:12:14;;;;;;;7.72;4.35;;;;;;;18.95;69.41;101282.28;7381615;19;20356;-77
2023/09/08 00:14:41;;;;;;;6.82;4.03;;;;;;;18.92;69.81;101277.38;7381574;19;20368;-77
2023/09/08 00:17:08;;;;;;;7.05;4.25;;;;;;;18.90;69.88;101274.06;7383362;19;20424;-76
2023/09/08 00:19:35;;;;;;;6.67;4.60;;;;;;;18.85;69.89;101276.56;7384723;19;20937;-77
2023/09/08 00:22:03;;;;;;;7.50;4.65;;;;;;;18.79;69.97;101272.88;7384955;19;20373;-77
2023/09/08 00:24:29;;;;;;;7.47;4.95;;;;;;;18.74;69.94;101270.81;7382274;19;20353;-77
2023/09/08 00:26:56;;;;;;;6.38;4.55;;;;;;;18.67;70.08;101269.19;7383604;19;20372;-77
2023/09/08 00:29:23;;;;;;;6.32;4.53;;;;;;;18.58;70.63;101268.63;7380415;19;20372;-77
2023/09/08 00:31:50;;;;;;;6.47;4.60;;;;;;;18.53;70.87;101276.47;7380522;19;20373;-77
2023/09/08 00:34:17;;;;;;;6.40;4.57;;;;;;;18.46;70.81;101276.50;7384604;19;20363;-77
2023/09/08 00:36:44;;;;;;;6.53;4.80;;;;;;;18.41;71.07;101275.50;7380711;19;20747;-76
2023/09/08 00:39:10;;;;;;;7.60;4.80;;;;;;;18.37;71.07;101274.28;7383309;19;20443;-77
2023/09/08 00:41:37;;;;;;;7.65;5.00;;;;;;;18.29;71.10;101273.47;7383656;19;20357;-77
2023/09/08 00:44:05;;;;;;;6.45;5.20;;;;;;;18.23;71.43;101274.31;7378805;19;20371;-77
2023/09/08 00:46:32;;;;;;;7.00;4.60;;;;;;;18.18;71.83;101271.44;7381635;19;20368;-77
2023/09/08 00:48:59;;;;;;;8.05;4.40;;;;;;;18.13;72.11;101273.97;7382083;19;20361;-77
2023/09/08 00:51:26;;;;;;;8.38;4.65;;;;;;;18.08;72.41;101274.56;7384892;19;20903;-76
2023/09/08 00:53:53;;;;;;;8.40;4.63;;;;;;;18.04;72.24;101270.69;7383765;19;20383;-77
2023/09/08 00:56:20;;;;;;;7.68;4.85;;;;;;;18.00;72.77;101274.81;7384961;19;20397;-77
2023/09/08 00:58:47;;;;;;;7.28;4.60;;;;;;;17.96;73.04;101272.72;7387710;19;21065;-77
2023/09/08 01:01:14;;;;;;;7.07;4.80;;;;;;;17.90;73.19;101271.72;7389958;19;20386;-77
2023/09/08 01:03:41;;;;;;;8.43;4.75;;;;;;;17.87;73.22;101277.50;7388270;19;20459;-76
2023/09/08 01:06:08;;;;;;;6.33;4.70;;;;;;;17.81;73.58;101273.78;7383921;19;20383;-77
2023/09/08 01:08:36;;;;;;;6.95;5.18;;;;;;;17.73;74.11;101274.00;7385224;19;20380;-77
2023/09/08 01:11:03;;;;;;;7.65;5.18;;;;;;;17.65;74.48;101271.53;7388962;19;20360;-76
2023/09/08 01:13:30;;;;;;;8.30;5.22;;;;;;;17.60;74.48;101272.16;7385451;19;20370;-77
2023/09/08 01:15:57;;;;;;;6.93;4.83;;;;;;;17.57;74.67;101269.03;7390914;19;20496;-77
2023/09/08 01:18:24;;;;;;;8.75;5.00;;;;;;;17.52;74.97;101273.16;7386896;19;20352;-76
2023/09/08 01:21:12;;;;;;;8.32;5.38;;;;;;;17.48;75.31;101276.47;7388177;19;20369;-77
2023/09/08 01:24:16;;;;;;;7.60;5.30;;;;;;;17.42;75.42;101275.44;7388335;19;20701;-76
2023/09/08 01:26:43;;;;;;;9.38;5.40;;;;;;;17.35;75.67;101271.94;7382960;19;20385;-76
2023/09/08 01:29:11;;;;;;;7.60;5.28;;;;;;;17.31;75.72;101268.00;7390784;19;20384;-76
2023/09/08 01:31:38;;;;;;;7.38;5.38;;;;;;;17.26;76.09;101273.19;7384762;19;20687;-76
2023/09/08 01:34:06;;;;;;;9.98;5.35;;;;;;;17.21;75.98;101270.25;7388967;19;21307;-76
2023/09/08 01:36:34;;;;;;;8.00;5.18;;;;;;;17.14;76.44;101266.75;7388085;19;20459;-76
2023/09/08 01:39:02;;;;;;;6.97;5.00;;;;;;;17.09;76.33;101264.69;7385908;19;20976;-77
2023/09/08 01:41:31;;;;;;;9.70;5.82;;;;;;;17.05;76.86;101266.13;7386283;19;20691;-77
2023/09/08 01:43:59;;;;;;;6.80;5.15;;;;;;;16.99;76.79;101257.03;7386243;19;20349;-76
2023/09/08 01:46:26;;;;;;;6.82;5.00;;;;;;;16.95;76.93;101260.34;7387201;19;20345;-76
2023/09/08 01:48:53;;;;;;;6.97;5.15;;;;;;;16.92;77.25;101262.41;7383383;19;20368;-76
2023/09/08 01:51:19;;;;;;;7.25;5.30;;;;;;;16.89;77.61;101260.13;7388853;19;20344;-76
2023/09/08 01:53:46;;;;;;;6.80;5.40;;;;;;;16.87;77.84;101258.66;7388078;19;21028;-77
2023/09/08 01:56:13;;;;;;;6.47;5.15;;;;;;;16.84;77.96;101253.72;7390616;19;20343;-77
2023/09/08 01:58:40;;;;;;;7.25;5.25;;;;;;;16.82;77.99;101255.78;7389165;19;20385;-76
2023/09/08 02:01:07;;;;;;;7.35;5.50;;;;;;;16.79;78.12;101253.47;7383684;19;20910;-76
2023/09/08 02:03:34;;;;;;;7.85;5.90;;;;;;;16.77;78.60;101263.56;7385111;19;20376;-77
2023/09/08 02:06:01;;;;;;;6.63;5.10;;;;;;;16.73;78.63;101267.69;7385753;19;20361;-77
2023/09/08 02:08:28;;;;;;;6.57;5.20;;;;;;;16.69;78.96;101256.53;7383770;19;20369;-77
2023/09/08 02:10:54;;;;;;;6.68;5.22;;;;;;;16.63;79.21;101258.16;7386202;19;20412;-77
2023/09/08 02:13:22;;;;;;;6.93;5.57;;;;;;;16.59;79.43;101253.41;7388643;19;20901;-76
2023/09/08 02:15:48;;;;;;;6.60;5.15;;;;;;;16.55;79.25;101258.34;7386264;19;20375;-77
2023/09/08 02:18:15;;;;;;;8.15;5.40;;;;;;;16.52;79.30;101261.44;7386949;19;20474;-77
2023/09/08 02:20:42;;;;;;;6.93;5.07;;;;;;;16.46;79.36;101257.69;7384826;19;20361;-77
2023/09/08 02:23:09;;;;;;;8.43;5.40;;;;;;;16.43;79.31;101249.25;7384953;19;20368;-77
2023/09/08 02:25:37;;;;;;;5.60;4.65;;;;;;;16.36;79.48;101251.06;7382083;19;20360;-77
2023/09/08 02:28:04;;;;;;;6.85;5.05;;;;;;;16.33;79.81;101256.81;7385726;19;20397;-77
2023/09/08 02:30:31;;;;;;;7.65;5.22;;;;;;;16.28;79.84;101255.56;7386252;19;20386;-77
2023/09/08 02:32:59;;;;;;;8.00;5.33;;;;;;;16.23;80.22;101255.31;7384481;19;20344;-76
2023/09/08 02:35:27;;;;;;;7.45;5.10;;;;;;;16.20;80.19;101247.69;7386398;19;20368;-77
2023/09/08 02:37:55;;;;;;;10.77;6.07;;;;;;;16.16;80.47;101249.13;7385679;19;20712;-77
2023/09/08 02:40:23;;;;;;;7.13;5.28;;;;;;;16.12;80.76;101253.22;7383628;19;20375;-76
2023/09/08 02:42:50;;;;;;;6.75;5.38;;;;;;;16.08;80.83;101251.94;7379399;19;20655;-76
2023/09/08 02:45:17;;;;;;;6.65;5.57;;;;;;;16.03;81.13;101241.03;7387573;19;20655;-77
2023/09/08 02:47:43;;;;;;;8.88;5.68;;;;;;;16.00;81.53;101249.44;7387594;19;20332;-77
2023/09/08 02:50:10;;;;;;;8.33;6.13;;;;;;;15.96;81.74;101251.69;7387266;19;20358;-77
2023/09/08 02:52:37;;;;;;;8.35;5.78;;;;;;;15.95;81.91;101254.56;7386752;19;20368;-77
2023/09/08 02:55:04;;;;;;;7.93;5.68;;;;;;;15.90;81.79;101245.25;7384354;19;20375;-77
2023/09/08 02:57:31;;;;;;;7.53;5.82;;;;;;;15.89;81.96;101251.63;7382560;19;20693;-77
2023/09/08 02:59:58;;;;;;;8.18;6.10;;;;;;;15.84;82.36;101243.38;7380030;19;20343;-77
2023/09/08 03:02:25;;;;;;;7.63;5.50;;;;;;;15.83;82.36;101251.59;7380280;19;20412;-77
2023/09/08 03:04:53;;;;;;;7.40;6.15;;;;;;;15.81;82.80;101249.13;7387121;19;20360;-77
2023/09/08 03:07:20;;;;;;;8.75;6.07;;;;;;;15.79;82.91;101248.50;7384634;19;20348;-77
2023/09/08 03:09:47;;;;;;;8.87;6.30;;;;;;;15.78;83.17;101249.50;7385800;19;20491;-77
2023/09/08 03:12:14;;;;;;;9.73;6.18;;;;;;;15.77;83.23;101245.19;7382115;19;20403;-77
2023/09/08 03:14:41;;;;;;;8.70;5.90;;;;;;;15.75;83.60;101244.56;7388133;19;20352;-76
2023/09/08 03:17:08;;;;;;;8.65;5.93;;;;;;;15.74;83.84;101236.72;7384410;19;20376;-76
2023/09/08 03:19:35;;;;;;;8.10;6.65;;;;;;;15.72;84.23;101244.13;7373303;19;20368;-77
2023/09/08 03:22:02;;;;;;;8.90;6.53;;;;;;;15.69;84.33;101234.59;7378334;19;20400;-76
2023/09/08 03:24:28;;;;;;;8.25;6.65;;;;;;;15.67;84.56;101242.00;7385549;19;20364;-76
2023/09/08 03:26:57;;;;;;;6.97;6.15;;;;;;;15.63;84.60;101235.38;7382704;19;20678;-76
2023/09/08 03:29:24;;;;;;;8.75;6.28;;;;;;;15.58;84.83;101237.81;7384372;19;20360;-76
2023/09/08 03:31:51;;;;;;;8.10;6.10;;;;;;;15.53;84.96;101241.06;7381960;19;20369;-77
2023/09/08 03:34:20;;;;;;;8.15;6.05;;;;;;;15.48;85.04;101238.16;7384617;19;20364;-77
2023/09/08 03:36:50;;;;;;;8.52;6.25;;;;;;;15.45;85.23;101236.69;7379251;19;20348;-77
2023/09/08 03:39:19;;;;;;;10.48;6.15;;;;;;;15.42;85.63;101234.41;7372149;19;20363;-77
2023/09/08 03:41:46;;;;;;;8.47;6.33;;;;;;;15.38;85.74;101237.66;7377691;19;20348;-76
2023/09/08 03:44:13;;;;;;;10.50;6.10;;;;;;;15.34;86.17;101229.19;7379347;19;20377;-77
2023/09/08 03:46:39;;;;;;;12.18;6.72;;;;;;;15.31;86.55;101234.94;7377709;19;20368;-77
2023/09/08 03:49:07;;;;;;;9.18;6.18;;;;;;;15.28;86.39;101235.34;7378538;19;20755;-77
2023/09/08 03:51:34;;;;;;;8.87;6.37;;;;;;;15.25;86.50;101239.19;7376653;19;20682;-77
2023/09/08 03:54:02;;;;;;;9.77;6.35;;;;;;;15.22;86.64;101239.59;7377906;19;20361;-76
2023/09/08 03:56:29;;;;;;;8.77;6.03;;;;;;;15.21;87.01;101242.44;7375427;19;20364;-76
2023/09/08 03:58:56;;;;;;;9.40;6.93;;;;;;;15.20;87.06;101232.78;7376899;19;20368;-76
2023/09/08 04:01:23;;;;;;;9.07;6.43;;;;;;;15.20;87.05;101244.31;7378981;19;20360;-76
2023/09/08 04:03:50;;;;;;;7.67;6.23;;;;;;;15.19;87.13;101236.47;7376515;19;20421;-77
2023/09/08 04:06:17;;;;;;;8.60;6.63;;;;;;;15.18;87.24;101241.00;7376065;19;20352;-77
2023/09/08 04:08:44;;;;;;;10.50;6.50;;;;;;;15.15;87.48;101236.03;7378217;19;20369;-77
2023/09/08 04:11:11;;;;;;;8.57;6.50;;;;;;;15.12;87.75;101239.09;7374797;19;20352;-77
2023/09/08 04:13:38;;;;;;;8.75;6.43;;;;;;;15.10;88.37;101230.44;7374611;19;20740;-76
2023/09/08 04:16:05;;;;;;;8.73;6.18;;;;;;;15.08;88.11;101238.63;7373707;19;20341;-77
2023/09/08 04:18:32;;;;;;;9.50;6.53;;;;;;;15.05;88.33;101228.34;7376615;19;20364;-76
2023/09/08 04:20:59;;;;;;;9.32;6.25;;;;;;;15.02;88.47;101231.38;7378640;19;20353;-77
2023/09/08 04:23:26;;;;;;;11.45;6.13;;;;;;;15.01;88.65;101229.72;7378618;19;20344;-76
2023/09/08 04:25:53;;;;;;;10.27;7.50;;;;;;;15.00;88.51;101235.25;7378210;19;20880;-77
2023/09/08 04:28:20;;;;;;;10.93;6.50;;;;;;;14.97;88.54;101236.47;7375171;19;20368;-77
2023/09/08 04:30:46;;;;;;;9.80;6.93;;;;;;;14.96;88.90;101228.63;7379952;19;20395;-77
2023/09/08 04:33:13;;;;;;;9.75;7.40;;;;;;;14.94;89.12;101228.84;7385976;19;20375;-77
2023/09/08 04:35:40;;;;;;;8.85;6.68;;;;;;;14.93;88.84;101231.72;7386040;19;20363;-77
2023/09/08 04:38:07;;;;;;;8.82;6.93;;;;;;;14.91;89.53;101226.53;7385419;19;20407;-75
2023/09/08 04:40:34;;;;;;;20.52;17.67;;;;;;;14.99;90.30;101226.44;7384234;19;20371;-75
2023/09/08 04:43:01;;;;;;;567.60;505.80;;;;;;;15.06;90.37;101219.28;7384315;19;20995;-75
2023/09/08 04:45:28;;;;;;;599.00;509.10;;;;;;;15.18;91.28;101224.13;7377099;19;20423;-75
2023/09/08 04:47:55;;;;;;;62.10;49.97;;;;;;;15.38;94.63;101227.78;7368415;19;20796;-75
2023/09/08 04:50:22;;;;;;;11.10;9.02;;;;;;;15.68;94.80;101224.91;7375775;19;20379;-74
2023/09/08 04:52:50;;;;;;;11.10;6.90;;;;;;;16.01;93.27;101221.66;7372848;19;20393;-74
2023/09/08 04:55:17;;;;;;;12.23;6.88;;;;;;;16.17;90.10;101221.34;7377818;19;21372;-75
2023/09/08 04:57:44;;;;;;;10.18;6.78;;;;;;;16.34;89.60;101216.44;7386290;19;20344;-75
2023/09/08 05:00:11;;;;;;;8.55;6.70;;;;;;;16.43;87.61;101225.16;7383418;19;20381;-75
2023/09/08 05:02:38;;;;;;;9.45;6.85;;;;;;;16.49;86.76;101221.63;7375629;19;20390;-75
2023/09/08 05:05:06;;;;;;;8.73;6.43;;;;;;;16.57;85.93;101223.31;7379081;19;20372;-75
2023/09/08 05:07:33;;;;;;;10.43;7.05;;;;;;;16.67;85.75;101213.06;7379423;19;20364;-75
2023/09/08 05:10:00;;;;;;;7.80;6.45;;;;;;;16.79;85.09;101223.97;7378796;19;20440;-75
2023/09/08 05:12:30;;;;;;;11.50;6.57;;;;;;;16.93;84.83;101220.34;7383895;19;20364;-75
2023/09/08 05:15:00;;;;;;;8.70;6.50;;;;;;;17.03;83.57;101219.94;7386802;19;20367;-75
2023/09/08 05:17:27;;;;;;;10.50;6.70;;;;;;;17.05;82.88;101223.25;7384161;19;21167;-74
2023/09/08 05:19:55;;;;;;;9.47;7.33;;;;;;;17.10;82.75;101226.94;7383882;19;20407;-74
2023/09/08 05:22:22;;;;;;;12.20;6.97;;;;;;;17.16;82.40;101224.50;7381170;19;20996;-74
2023/09/08 05:24:50;;;;;;;15.63;7.93;;;;;;;17.21;82.07;101224.69;7384878;19;20900;-74
2023/09/08 05:27:17;;;;;;;13.80;7.95;;;;;;;17.29;82.14;101225.31;7382713;19;20367;-74
2023/09/08 05:29:44;;;;;;;10.95;7.18;;;;;;;17.43;81.89;101220.78;7380589;19;20369;-74
2023/09/08 05:32:12;;;;;;;13.70;7.13;;;;;;;17.60;81.27;101220.34;7386949;19;20372;-74
2023/09/08 05:34:39;;;;;;;9.73;6.83;;;;;;;17.69;80.66;101224.47;7385427;19;20360;-74
2023/09/08 05:37:06;;;;;;;13.70;6.82;;;;;;;17.73;80.00;101220.31;7388042;19;20451;-74
2023/09/08 05:39:33;;;;;;;10.85;6.85;;;;;;;18.08;80.54;101231.59;7386645;19;20364;-74
2023/09/08 05:42:00;;;;;;;13.25;6.70;;;;;;;18.27;78.59;101227.19;7379436;19;20382;-74
2023/09/08 05:44:27;;;;;;;13.70;7.35;;;;;;;18.27;77.76;101229.06;7381790;19;20372;-75
2023/09/08 05:46:54;;;;;;;13.13;7.00;;;;;;;18.24;77.57;101232.19;7378614;19;20356;-75
2023/09/08 05:49:22;;;;;;;12.38;7.18;;;;;;;18.30;78.17;101226.78;7384166;19;20356;-74
2023/09/08 05:51:49;;;;;;;11.52;6.75;;;;;;;18.38;77.93;101222.19;7390319;19;20345;-74
2023/09/08 05:54:16;;;;;;;11.43;7.00;;;;;;;18.42;77.54;101218.88;7385232;19;20352;-74
2023/09/08 05:56:43;;;;;;;12.43;6.82;;;;;;;18.51;77.48;101222.16;7387504;19;20443;-74
2023/09/08 05:59:11;;;;;;;13.60;7.10;;;;;;;18.57;77.21;101218.59;7392988;19;20944;-74
2023/09/08 06:01:38;;;;;;;12.95;7.03;;;;;;;18.63;76.49;101222.28;7391460;19;20368;-75
2023/09/08 06:04:07;;;;;;;11.32;7.13;;;;;;;18.68;76.37;101223.31;7394240;19;20439;-75
2023/09/08 06:06:34;;;;;;;12.27;6.95;;;;;;;18.75;76.42;101220.56;7390931;19;20349;-75
2023/09/08 06:09:02;;;;;;;9.80;6.78;;;;;;;18.86;76.54;101219.91;7395172;19;20364;-75
2023/09/08 06:11:30;;;;;;;12.20;6.77;;;;;;;19.02;76.34;101221.25;7391946;19;20371;-75
2023/09/08 06:13:59;;;;;;;11.27;6.75;;;;;;;19.12;75.58;101218.06;7396880;19;20360;-75
2023/09/08 06:16:30;;;;;;;12.48;6.88;;;;;;;19.24;75.63;101220.88;7394394;19;20464;-75
2023/09/08 06:18:57;;;;;;;11.77;7.10;;;;;;;19.38;75.21;101232.34;7391915;19;20690;-75
2023/09/08 06:21:24;;;;;;;13.32;6.80;;;;;;;19.41;74.66;101227.34;7393022;19;20379;-75
2023/09/08 06:23:51;;;;;;;9.88;6.75;;;;;;;19.54;74.69;101221.84;7389902;19;20820;-75
2023/09/08 06:26:18;;;;;;;13.25;6.80;;;;;;;19.67;74.57;101217.38;7389484;19;20356;-75
2023/09/08 06:28:45;;;;;;;10.70;6.80;;;;;;;19.75;74.25;101222.50;7392769;19;20352;-75
2023/09/08 06:31:14;;;;;;;11.50;7.05;;;;;;;19.84;73.79;101231.09;7393993;19;20361;-75
2023/09/08 06:33:42;;;;;;;8.85;6.20;;;;;;;19.92;73.92;101223.56;7393281;19;20365;-75
2023/09/08 06:36:09;;;;;;;9.43;6.70;;;;;;;20.01;73.79;101215.19;7392083;19;20360;-75
2023/09/08 06:38:36;;;;;;;11.90;7.38;;;;;;;20.11;73.58;101215.47;7395948;19;20356;-75
2023/09/08 06:41:11;;;;;;;7.90;6.07;;;;;;;20.29;73.06;101218.13;7390839;19;20432;-75
2023/09/08 06:43:39;;;;;;;10.90;6.65;;;;;;;20.45;72.88;101221.28;7391347;19;20362;-74
2023/09/08 06:46:13;;;;;;;9.98;6.65;;;;;;;20.60;72.44;101210.94;7389824;19;20516;-75
2023/09/08 06:48:41;;;;;;;9.70;6.30;;;;;;;20.71;71.81;101215.53;7392929;19;20385;-75
2023/09/08 06:51:09;;;;;;;10.43;6.35;;;;;;;20.77;71.40;101213.78;7393809;19;20364;-75
2023/09/08 06:53:38;;;;;;;12.40;7.88;;;;;;;20.91;71.58;101220.66;7388055;19;20940;-75
2023/09/08 06:56:05;;;;;;;62.22;49.05;;;;;;;21.09;70.82;101224.31;7394289;19;20362;-75
2023/09/08 06:58:32;;;;;;;11.13;6.80;;;;;;;21.17;70.33;101219.41;7393910;19;20403;-75
2023/09/08 07:01:00;;;;;;;11.10;6.50;;;;;;;21.24;70.55;101221.16;7393433;19;20424;-76
2023/09/08 07:03:27;;;;;;;11.98;6.90;;;;;;;21.33;70.17;101230.53;7389363;19;20360;-75
2023/09/08 07:05:55;;;;;;;14.07;10.40;;;;;;;21.44;69.89;101227.06;7390884;19;20384;-75
2023/09/08 07:08:23;;;;;;;37.53;30.30;;;;;;;21.56;69.48;101230.59;7392863;19;20349;-75
2023/09/08 07:10:53;;;;;;;9.43;6.55;;;;;;;21.70;69.11;101228.47;7392456;19;20360;-75
2023/09/08 07:13:20;;;;;;;12.70;8.67;;;;;;;21.85;68.72;101229.88;7385729;19;20377;-76
2023/09/08 07:15:47;;;;;;;12.53;6.37;;;;;;;21.98;68.66;101222.31;7385803;19;20428;-76
2023/09/08 07:18:14;;;;;;;9.63;5.68;;;;;;;22.11;68.47;101225.84;7381687;19;20372;-76
2023/09/08 07:20:46;;;;;;;13.95;7.90;;;;;;;22.20;68.02;101221.69;7384815;19;20336;-76
2023/09/08 07:23:14;;;;;;;12.00;7.90;;;;;;;22.32;67.64;101219.81;7389115;19;20381;-76
2023/09/08 07:25:45;;;;;;;9.77;5.50;;;;;;;22.45;67.33;101223.28;7392402;19;20416;-76
2023/09/08 07:28:12;;;;;;;8.50;5.63;;;;;;;22.56;66.69;101230.53;7389765;19;20885;-75
2023/09/08 07:30:39;;;;;;;8.13;5.20;;;;;;;22.73;65.41;101225.97;7393050;19;20352;-75
2023/09/08 07:33:06;;;;;;;8.35;5.82;;;;;;;22.87;64.95;101217.56;7388545;19;20958;-75
2023/09/08 07:35:37;;;;;;;15.55;12.32;;;;;;;23.03;64.49;101224.06;7390122;19;20373;-75
2023/09/08 07:38:05;;;;;;;8.15;6.35;;;;;;;23.13;64.00;101230.47;7386856;19;20379;-75
2023/09/08 07:40:33;;;;;;;10.13;5.30;;;;;;;23.25;64.02;101227.69;7388824;19;20356;-75
2023/09/08 07:43:01;;;;;;;7.20;5.05;;;;;;;23.34;63.48;101228.09;7389675;19;20360;-75
2023/09/08 07:45:28;;;;;;;9.70;5.40;;;;;;;23.47;63.35;101225.03;7388681;19;20368;-75
2023/09/08 07:47:55;;;;;;;17.70;13.25;;;;;;;23.60;63.35;101224.69;7390563;19;20373;-75
2023/09/08 07:50:26;;;;;;;8.50;5.70;;;;;;;23.68;62.65;101226.16;7391693;19;20360;-75
2023/09/08 07:52:55;;;;;;;8.02;5.05;;;;;;;23.74;62.28;101216.22;7387880;19;20368;-75
2023/09/08 07:55:23;;;;;;;10.20;6.80;;;;;;;23.81;62.22;101214.16;7386638;19;20356;-75
2023/09/08 07:57:51;;;;;;;9.23;5.93;;;;;;;23.89;61.96;101210.22;7378976;19;20357;-75
2023/09/08 08:00:18;;;;;;;20.02;16.17;;;;;;;23.99;62.10;101210.31;7393026;19;20368;-75
2023/09/08 08:02:48;;;;;;;11.17;7.83;;;;;;;24.10;61.79;101213.97;7391732;19;20428;-76
2023/09/08 08:05:15;;;;;;;9.65;5.18;;;;;;;24.20;61.29;101214.91;7395537;19;20372;-75
2023/09/08 08:07:43;;;;;;;31.67;26.80;;;;;;;24.32;60.94;101217.50;7395734;19;20495;-75
2023/09/08 08:10:12;;;;;;;14.57;9.65;;;;;;;24.41;60.44;101217.88;7392589;19;20702;-75
2023/09/08 08:12:39;;;;;;;9.70;6.15;;;;;;;24.53;60.25;101220.47;7394000;19;20356;-75
2023/09/08 08:15:07;;;;;;;12.50;7.32;;;;;;;24.63;60.05;101226.00;7399502;19;20368;-75
2023/09/08 08:17:34;;;;;;;8.98;4.75;;;;;;;24.74;59.83;101219.59;7397789;19;20398;-76
2023/09/08 08:20:08;;;;;;;9.82;6.07;;;;;;;24.82;59.20;101211.00;7399911;19;20363;-76
2023/09/08 08:22:36;;;;;;;7.35;5.75;;;;;;;24.91;58.74;101222.19;7394753;19;20412;-76
2023/09/08 08:25:03;;;;;;;27.57;18.50;;;;;;;25.04;58.54;101218.22;7399823;19;20351;-76
2023/09/08 08:27:31;;;;;;;99.50;82.53;;;;;;;25.13;58.36;101216.66;7398618;19;20352;-76
2023/09/08 08:30:00;;;;;;;6.75;4.72;;;;;;;25.27;58.20;101219.81;7397287;19;20356;-76
2023/09/08 08:32:28;;;;;;;14.25;8.88;;;;;;;25.37;57.38;101213.59;7396743;19;20340;-75
2023/09/08 08:34:56;;;;;;;36.22;31.88;;;;;;;25.50;57.28;101223.19;7397826;19;20666;-75
2023/09/08 08:37:23;;;;;;;56.42;45.08;;;;;;;25.59;56.83;101217.00;7399016;19;20442;-75
2023/09/08 08:39:50;;;;;;;10.00;7.53;;;;;;;25.64;56.52;101219.75;7397816;19;20348;-75
2023/09/08 08:42:20;;;;;;;10.63;7.25;;;;;;;25.71;56.05;101214.06;7397783;19;20362;-75
2023/09/08 08:44:47;;;;;;;10.27;8.23;;;;;;;25.79;55.67;101221.72;7396412;19;20908;-75
2023/09/08 08:47:15;;;;;;;19.60;17.23;;;;;;;25.85;54.93;101219.88;7394114;19;20376;-76
2023/09/08 08:49:46;;;;;;;8.18;4.93;;;;;;;25.92;54.73;101220.47;7394008;19;20383;-76
2023/09/08 08:52:14;;;;;;;7.38;3.95;;;;;;;26.02;54.70;101212.34;7398548;19;20361;-76
2023/09/08 08:54:42;;;;;;;6.35;4.13;;;;;;;26.11;54.54;101215.38;7398022;19;20849;-75
2023/09/08 08:57:11;;;;;;;7.30;3.95;;;;;;;26.20;54.07;101210.25;7395227;19;20689;-75
2023/09/08 08:59:38;;;;;;;9.57;6.10;;;;;;;26.27;53.50;101205.38;7397717;19;20411;-75
2023/09/08 09:02:05;;;;;;;7.10;4.22;;;;;;;26.36;53.55;101205.69;7397192;19;20353;-75
2023/09/08 09:04:33;;;;;;;6.80;3.92;;;;;;;26.43;53.54;101203.50;7398929;19;20844;-75
2023/09/08 09:07:00;;;;;;;5.70;4.20;;;;;;;26.51;52.84;101199.44;7393130;19;20372;-75
2023/09/08 09:09:28;;;;;;;6.90;3.67;;;;;;;26.56;52.47;101202.16;7396601;19;20352;-75
2023/09/08 09:11:55;;;;;;;6.13;3.92;;;;;;;26.64;52.55;101196.22;7395163;19;20372;-75
2023/09/08 09:14:23;;;;;;;7.57;4.20;;;;;;;26.70;51.10;101192.41;7397625;19;20373;-76
2023/09/08 09:16:50;;;;;;;11.85;10.00;;;;;;;26.81;51.12;101188.59;7396736;19;20372;-75
2023/09/08 09:19:25;;;;;;;7.53;4.43;;;;;;;26.88;51.23;101182.06;7392710;19;20353;-75
2023/09/08 09:21:54;;;;;;;218.70;195.57;;;;;;;27.00;51.01;101190.78;7394963;19;20362;-75
2023/09/08 09:24:43;;;;;;;52.78;45.95;;;;;;;27.04;50.54;101189.16;7391914;19;20364;-75
2023/09/08 09:27:12;;;;;;;67.40;54.50;;;;;;;27.10;50.38;101193.50;7395845;19;20424;-76
2023/09/08 09:29:50;;;;;;;50.05;44.58;;;;;;;27.17;49.99;101183.16;7396013;19;20709;-76
2023/09/08 09:32:23;;;;;;;7.80;4.68;;;;;;;27.25;49.88;101187.25;7388671;19;20798;-76
2023/09/08 09:34:54;;;;;;;156.27;139.73;;;;;;;27.35;49.68;101173.63;7394700;19;20358;-75
2023/09/08 09:37:21;;;;;;;9.75;4.88;;;;;;;27.47;49.33;101189.66;7395474;19;20359;-75
2023/09/08 09:39:53;;;;;;;58.13;43.05;;;;;;;27.59;48.43;101186.63;7395519;19;20348;-75
2023/09/08 09:42:21;;;;;;;5.00;3.53;;;;;;;27.69;48.24;101183.03;7391518;19;20332;-75
2023/09/08 09:44:49;;;;;;;12.07;8.70;;;;;;;27.82;48.39;101180.56;7394031;19;20581;-75
2023/09/08 09:47:16;;;;;;;5.83;3.50;;;;;;;27.92;48.53;101185.16;7396187;19;20364;-75
2023/09/08 09:49:47;;;;;;;9.97;6.97;;;;;;;28.04;47.86;101177.47;7395248;19;20444;-75
2023/09/08 09:52:31;;;;;;;6.35;4.05;;;;;;;28.15;47.30;101186.41;7393556;19;20384;-75
2023/09/08 09:54:59;;;;;;;260.38;233.38;;;;;;;28.18;46.53;101183.13;7396395;19;20349;-75
2023/09/08 09:57:27;;;;;;;7.05;4.57;;;;;;;28.19;46.76;101178.50;7395387;19;20389;-75
2023/09/08 09:59:56;;;;;;;16.15;11.93;;;;;;;28.25;46.12;101177.38;7388609;19;20360;-75
2023/09/08 10:02:23;;;;;;;7.03;3.30;;;;;;;28.42;47.15;101179.72;7384460;19;20353;-77
2023/09/08 10:04:53;;;;;;;5.05;3.60;;;;;;;28.62;46.97;101176.84;7395850;19;20880;-77
2023/09/08 10:07:20;;;;;;;8.10;3.92;;;;;;;28.80;47.91;101166.38;7392506;19;20377;-77
2023/09/08 10:09:47;;;;;;;11.07;4.07;;;;;;;28.98;47.42;101157.44;7385402;19;20427;-77
2023/09/08 10:12:16;;;;;;;9.73;4.10;;;;;;;29.13;47.10;101159.25;7395906;19;20368;-77
2023/09/08 10:14:44;;;;;;;5.72;4.38;;;;;;;29.30;46.06;101157.97;7399070;19;20364;-77
2023/09/08 10:17:20;;;;;;;7.45;4.10;;;;;;;29.41;46.41;101162.22;7393338;19;20713;-77
2023/09/08 10:19:51;;;;;;;10.02;4.68;;;;;;;29.54;46.22;101167.00;7393968;19;20865;-77
2023/09/08 10:22:24;;;;;;;7.35;4.10;;;;;;;29.59;45.93;101161.47;7390623;19;20428;-77
2023/09/08 10:24:55;;;;;;;5.28;3.88;;;;;;;29.65;43.86;101168.50;7393541;19;20700;-77
2023/09/08 10:27:23;;;;;;;7.55;3.88;;;;;;;29.72;44.94;101159.97;7395683;19;20412;-77
2023/09/08 10:29:55;;;;;;;6.20;4.45;;;;;;;29.82;44.31;101159.06;7390976;19;20332;-77
2023/09/08 10:32:22;;;;;;;7.38;4.55;;;;;;;29.94;44.50;101156.69;7396479;19;20353;-77
2023/09/08 10:34:50;;;;;;;7.18;4.40;;;;;;;29.98;44.94;101152.25;7394965;19;20418;-77
2023/09/08 10:37:29;;;;;;;7.82;4.13;;;;;;;30.04;43.56;101156.53;7395567;19;20882;-77
2023/09/08 10:40:16;;;;;;;8.95;4.18;;;;;;;30.13;43.41;101161.34;7387469;19;20380;-76
2023/09/08 10:42:43;;;;;;;7.83;4.10;;;;;;;30.19;42.17;101152.78;7391496;19;20357;-76
2023/09/08 10:45:18;;;;;;;7.45;3.80;;;;;;;30.20;41.30;101153.56;7391881;19;20742;-77
2023/09/08 10:47:45;;;;;;;6.10;3.45;;;;;;;30.26;41.79;101155.13;7394716;19;20692;-77
2023/09/08 10:50:19;;;;;;;5.33;3.50;;;;;;;30.36;41.92;101151.47;7390449;19;20384;-77
2023/09/08 10:53:04;;;;;;;6.97;3.03;;;;;;;30.40;39.78;101142.34;7394983;19;20424;-77
2023/09/08 10:55:40;;;;;;;6.20;3.20;;;;;;;30.51;40.23;101145.75;7393077;19;20356;-77
2023/09/08 10:58:10;;;;;;;5.15;2.95;;;;;;;30.65;41.15;101159.50;7395918;19;20752;-77
2023/09/08 11:00:44;;;;;;;5.35;2.83;;;;;;;30.75;39.49;101142.06;7389288;19;20381;-77
2023/09/08 11:03:13;;;;;;;5.55;3.30;;;;;;;30.77;40.07;101140.66;7394925;19;20382;-77
2023/09/08 11:05:42;;;;;;;5.23;2.57;;;;;;;30.78;38.20;101153.25;7394006;19;20332;-76
2023/09/08 11:08:09;;;;;;;4.93;2.70;;;;;;;30.86;38.35;101144.38;7393673;19;20423;-77
2023/09/08 11:10:37;;;;;;;5.78;3.30;;;;;;;30.92;37.35;101147.81;7391011;19;20386;-77
2023/09/08 11:13:04;;;;;;;4.72;2.90;;;;;;;30.97;37.14;101149.66;7395882;19;20352;-78
2023/09/08 11:15:31;;;;;;;5.90;2.83;;;;;;;31.11;36.87;101139.53;7393347;19;20368;-77
2023/09/08 11:18:04;;;;;;;6.03;2.83;;;;;;;31.23;36.94;101142.59;7391501;19;20431;-77
2023/09/08 11:20:31;;;;;;;7.28;2.80;;;;;;;31.35;36.44;101144.03;7387268;19;20378;-77
2023/09/08 11:22:59;;;;;;;6.13;2.90;;;;;;;31.46;37.37;101145.47;7380138;19;20356;-77
2023/09/08 11:25:26;;;;;;;5.25;2.67;;;;;;;31.54;34.75;101132.97;7381487;19;20719;-76
2023/09/08 11:27:54;;;;;;;5.95;2.47;;;;;;;31.66;36.06;101131.31;7381159;19;20377;-77